Página principal
METAR-TAF:

METAR-TAF

Aeroportos :

Cidade de Ho Chi Minh, Vietname

Aeroporto Internacional Tan Son Nhat

latitude: 10-49N, longitude: 106-40E, altura: 19 m

Observação actual do tempo

O boletim foi feito há 49 minutos, às 01:30 UTC
Vento 3 kt de nor-nordeste
Temperatura 29°C
Humidade 70%
Pressão 1013 hPa
Visibilidade: 6000 m

METAR: VVTS 280130Z 02003KT 6000 NSC 29/23 Q1013 NOSIG

Hora: 09:19 (02:19 UTC)

Previsão

O boletim foi feito há 3 horas e 19 minutos, às 23:00 UTC
Previsão válida de 28 às 00 UTC a 29 às 06 UTC
Vento 6 kt de este
Visibilidade 10 km ou mais
Nuvens dispersasa uma altura de 1700 ft
Temporariamente
de 28 às 06 UTC a 28 às 11 UTC
Visibilidade: 5000 m
Nuvens fragmentadasa uma altura de 1300 ft
Poucas nuvensa uma altura de 1500 ft, Cumulonimbus.
trovoada, chuva

TAF: VVTS 272300Z 2800/2906 08006KT 9999 SCT017 TEMPO 2806/2811 5000 TSRA BKN013 FEW015CB

Observações e previsões do tempo de mais de 4000 aeroportos (mensagens METAR e TAF).

As estações disponíveis são os pontos amarelos e vermelhos sobre o mapa.

Mova o rato sobre o mapa para ver o nome da estação.

Depois clique no ponto para visualizar as observações e previsões meteorológicas.

Para alterar o mapa : clique nos botões verdes com uma cruz preta para aumentar o zoom; no botão verde com uma pitada de zoom; ou nas setas verdes para mapas adjacentes.


METAR-TAF: